createdAt,value
2023-04-20T00:00:17.152Z,10.50
2023-04-20T00:04:19.036Z,10.54
2023-04-20T00:08:13.551Z,10.58
2023-04-20T00:12:12.307Z,10.59
2023-04-20T00:16:09.385Z,10.59
2023-04-20T00:20:10.037Z,10.62
2023-04-20T00:24:07.576Z,10.64
2023-04-20T00:28:09.108Z,10.62
2023-04-20T00:32:06.384Z,10.58
2023-04-20T00:36:11.366Z,10.56
2023-04-20T00:40:09.889Z,10.55
2023-04-20T00:44:02.249Z,10.47
2023-04-20T00:47:48.683Z,10.53
2023-04-20T00:51:34.744Z,10.37
2023-04-20T00:55:20.975Z,10.36
2023-04-20T00:59:13.386Z,10.36
2023-04-20T01:03:06.613Z,10.38
2023-04-20T01:07:06.537Z,10.31
2023-04-20T01:11:05.131Z,10.38
2023-04-20T01:15:00.088Z,10.39
2023-04-20T01:19:06.817Z,10.30
2023-04-20T01:23:05.466Z,10.18
2023-04-20T01:27:04.413Z,10.06
2023-04-20T01:31:04.932Z,9.94
2023-04-20T01:35:01.395Z,9.89
2023-04-20T01:38:58.100Z,9.77
2023-04-20T01:42:51.203Z,9.80
2023-04-20T01:46:54.999Z,9.74
2023-04-20T01:50:54.581Z,9.64
2023-04-20T01:54:57.382Z,9.57
2023-04-20T01:58:56.535Z,9.54
2023-04-20T02:02:59.470Z,9.52
2023-04-20T02:06:54.349Z,9.52
2023-04-20T02:10:52.906Z,9.51
2023-04-20T02:14:57.435Z,9.54
2023-04-20T02:18:39.450Z,9.55
2023-04-20T02:22:42.540Z,9.50
2023-04-20T02:26:41.533Z,9.46
2023-04-20T02:30:44.983Z,9.47
2023-04-20T02:34:45.448Z,9.45
2023-04-20T02:38:44.123Z,9.46
2023-04-20T02:42:39.472Z,9.46
2023-04-20T02:46:45.367Z,9.45
2023-04-20T02:50:45.500Z,9.43
2023-04-20T02:54:54.547Z,9.43
2023-04-20T02:58:37.632Z,9.42
2023-04-20T03:02:51.681Z,9.44
2023-04-20T03:06:55.469Z,9.42
2023-04-20T03:10:54.214Z,9.46
2023-04-20T03:14:58.633Z,9.50
2023-04-20T03:19:08.690Z,9.56
2023-04-20T03:23:11.463Z,9.50
2023-04-20T03:27:11.565Z,9.50
2023-04-20T03:31:34.528Z,9.55
2023-04-20T03:35:29.326Z,9.54
2023-04-20T03:39:28.418Z,9.48
2023-04-20T03:43:29.277Z,9.57
2023-04-20T03:47:32.534Z,9.52
2023-04-20T03:51:32.669Z,9.40
2023-04-20T03:55:35.479Z,9.38
2023-04-20T03:59:37.700Z,9.36
2023-04-20T04:03:42.303Z,9.31
2023-04-20T04:07:37.942Z,9.29
2023-04-20T04:11:42.696Z,9.29
2023-04-20T04:15:42.718Z,9.29
2023-04-20T04:19:48.415Z,9.25
2023-04-20T04:23:48.758Z,9.25
2023-04-20T04:27:58.202Z,9.27
2023-04-20T04:31:57.774Z,9.19
2023-04-20T04:35:56.605Z,9.17
2023-04-20T04:39:58.908Z,9.21
2023-04-20T04:43:57.715Z,9.24
2023-04-20T04:48:01.310Z,9.27
2023-04-20T04:51:55.945Z,9.28
2023-04-20T04:56:04.230Z,9.28
2023-04-20T05:00:03.785Z,9.32
2023-04-20T05:04:02.493Z,9.31
2023-04-20T05:07:56.733Z,9.35
2023-04-20T05:12:08.753Z,9.38
2023-04-20T05:16:07.827Z,9.48
2023-04-20T05:20:10.795Z,9.48
2023-04-20T05:24:09.243Z,9.50
2023-04-20T05:28:03.748Z,9.53
2023-04-20T05:31:50.534Z,9.58
2023-04-20T05:35:42.746Z,9.62
2023-04-20T05:39:41.308Z,9.65
2023-04-20T05:43:40.850Z,9.67
2023-04-20T05:47:43.788Z,9.62
2023-04-20T05:51:43.731Z,9.67
2023-04-20T05:55:46.760Z,9.63
2023-04-20T05:59:45.843Z,9.64
2023-04-20T06:03:49.691Z,9.70
2023-04-20T06:07:52.759Z,9.67
2023-04-20T06:11:55.776Z,9.66
2023-04-20T06:15:55.862Z,9.66
2023-04-20T06:19:57.867Z,9.72
2023-04-20T06:23:52.588Z,9.68
2023-04-20T06:27:57.218Z,9.71
2023-04-20T06:31:55.999Z,9.72
2023-04-20T06:35:58.769Z,9.77
2023-04-20T06:39:59.161Z,9.74
2023-04-20T06:44:01.750Z,9.72
2023-04-20T06:48:02.089Z,9.71
2023-04-20T06:52:00.862Z,9.72
2023-04-20T06:55:54.804Z,9.72
2023-04-20T07:00:05.517Z,9.80
2023-04-20T07:04:04.428Z,9.66
2023-04-20T07:08:07.599Z,9.70
2023-04-20T07:12:06.032Z,9.67
2023-04-20T07:16:18.815Z,9.71
2023-04-20T07:20:17.955Z,9.73
2023-04-20T07:24:16.778Z,9.80
2023-04-20T07:28:17.301Z,9.80
2023-04-20T07:32:20.406Z,9.77
2023-04-20T07:36:19.065Z,9.80
2023-04-20T07:40:21.538Z,9.77
2023-04-20T07:44:21.272Z,9.79
2023-04-20T07:48:24.026Z,9.70
2023-04-20T07:52:18.334Z,9.69
2023-04-20T07:56:16.513Z,9.72
2023-04-20T08:00:17.873Z,9.70
2023-04-20T08:04:21.729Z,9.74
2023-04-20T08:08:22.059Z,9.70
2023-04-20T08:12:25.220Z,9.69
2023-04-20T08:16:24.235Z,9.70
2023-04-20T08:20:26.956Z,9.73
2023-04-20T08:24:22.178Z,9.81
2023-04-20T08:28:32.967Z,9.83
2023-04-20T08:32:32.025Z,9.85
2023-04-20T08:36:44.124Z,9.84
2023-04-20T08:40:47.163Z,9.81
2023-04-20T08:44:46.146Z,9.79
2023-04-20T08:48:49.578Z,9.83
2023-04-20T08:52:55.788Z,9.79
2023-04-20T08:57:02.186Z,9.78
2023-04-20T09:01:02.000Z,9.77
2023-04-20T09:05:02.738Z,9.78
2023-04-20T09:09:05.099Z,9.81
2023-04-20T09:13:02.188Z,9.85
2023-04-20T09:17:04.712Z,9.93
2023-04-20T09:21:01.454Z,9.92
2023-04-20T09:25:03.494Z,9.96
2023-04-20T09:29:02.102Z,9.98
2023-04-20T09:33:02.681Z,9.98
2023-04-20T09:37:02.290Z,9.97
2023-04-20T09:41:02.600Z,9.96
2023-04-20T09:45:01.063Z,10.02
2023-04-20T09:49:04.285Z,10.00
2023-04-20T09:53:03.160Z,10.04
2023-04-20T09:57:06.321Z,10.09
2023-04-20T10:01:05.371Z,10.13
2023-04-20T10:05:07.682Z,10.19
2023-04-20T10:09:04.372Z,10.32
2023-04-20T10:13:06.755Z,10.44
2023-04-20T10:17:03.521Z,10.40
2023-04-20T10:21:04.284Z,10.41
2023-04-20T10:25:06.303Z,10.37
2023-04-20T10:29:03.315Z,10.44
2023-04-20T10:33:04.251Z,10.47
2023-04-20T10:37:01.194Z,10.50
2023-04-20T10:41:01.769Z,10.47
2023-04-20T10:44:58.241Z,10.55
2023-04-20T10:48:58.699Z,10.70
2023-04-20T10:52:57.163Z,10.61
2023-04-20T10:56:57.378Z,10.66
2023-04-20T11:00:54.453Z,10.64
2023-04-20T11:04:54.613Z,10.71
2023-04-20T11:08:51.359Z,10.67
2023-04-20T11:12:52.281Z,10.70
2023-04-20T11:16:51.724Z,10.66
2023-04-20T11:20:52.901Z,10.53
2023-04-20T11:24:49.318Z,10.50
2023-04-20T11:28:51.010Z,10.50
2023-04-20T11:32:48.553Z,10.51
2023-04-20T11:36:53.261Z,10.48
2023-04-20T11:40:49.548Z,10.46
2023-04-20T11:44:46.412Z,10.42
2023-04-20T11:48:47.380Z,10.39
2023-04-20T11:52:44.646Z,10.39
2023-04-20T11:56:45.489Z,10.41
2023-04-20T12:00:43.303Z,10.50
2023-04-20T12:04:43.621Z,10.40
2023-04-20T12:08:42.848Z,10.40
2023-04-20T12:12:39.765Z,10.39
2023-04-20T12:16:40.260Z,10.41
2023-04-20T12:20:37.606Z,10.27
2023-04-20T12:24:42.214Z,10.18
2023-04-20T12:28:39.678Z,10.15
2023-04-20T12:32:38.670Z,10.03
2023-04-20T12:36:41.440Z,10.09
2023-04-20T12:40:42.321Z,10.05
2023-04-20T12:44:31.270Z,10.04
2023-04-20T12:48:17.388Z,10.06
2023-04-20T12:52:03.264Z,9.91
2023-04-20T12:55:57.549Z,9.87
2023-04-20T12:59:57.715Z,9.98
2023-04-20T13:03:58.527Z,9.96
2023-04-20T13:07:55.568Z,9.89
2023-04-20T13:11:56.085Z,9.89
2023-04-20T13:15:52.606Z,9.87
2023-04-20T13:19:53.009Z,9.89
2023-04-20T13:23:49.264Z,9.94
2023-04-20T13:27:49.546Z,9.90
2023-04-20T13:31:35.835Z,9.90
2023-04-20T13:35:22.389Z,9.85
2023-04-20T13:39:09.173Z,9.80
2023-04-20T13:42:55.032Z,9.81
2023-04-20T13:46:41.036Z,9.77
2023-04-20T13:50:32.848Z,9.77
2023-04-20T13:54:25.637Z,9.81
2023-04-20T13:58:17.979Z,9.86
2023-04-20T14:02:18.075Z,9.83
2023-04-20T14:06:14.747Z,9.78
2023-04-20T14:10:11.833Z,9.79
2023-04-20T14:14:12.291Z,9.85
2023-04-20T14:18:08.745Z,9.82
2023-04-20T14:22:08.994Z,9.81
2023-04-20T14:26:05.781Z,9.84
2023-04-20T14:30:04.531Z,9.84
2023-04-20T14:33:51.105Z,9.85
2023-04-20T14:37:37.554Z,9.82
2023-04-20T14:41:24.051Z,9.82
2023-04-20T14:45:10.629Z,9.82
2023-04-20T14:48:56.712Z,9.79
2023-04-20T14:52:49.080Z,9.80
2023-04-20T14:56:43.462Z,9.78
2023-04-20T15:00:44.863Z,9.84
2023-04-20T15:04:41.852Z,9.89
2023-04-20T15:08:42.508Z,9.84
2023-04-20T15:12:40.159Z,9.77
2023-04-20T15:16:40.971Z,9.75
2023-04-20T15:20:37.877Z,9.72
2023-04-20T15:24:38.510Z,9.70
2023-04-20T15:28:34.461Z,9.67
2023-04-20T15:32:20.720Z,9.59
2023-04-20T15:36:06.680Z,9.50
2023-04-20T15:39:52.485Z,9.41
2023-04-20T15:43:38.774Z,9.31
2023-04-20T15:47:28.616Z,9.29
2023-04-20T15:51:21.387Z,9.28
2023-04-20T15:55:14.052Z,9.19
2023-04-20T15:59:10.669Z,9.25
2023-04-20T16:03:11.615Z,9.26
2023-04-20T16:07:09.437Z,9.28
2023-04-20T16:11:10.010Z,9.24
2023-04-20T16:15:06.655Z,9.16
2023-04-20T16:19:07.249Z,9.05
2023-04-20T16:23:03.902Z,9.07
2023-04-20T16:27:01.059Z,9.03
2023-04-20T16:30:47.286Z,9.04
2023-04-20T16:34:34.247Z,9.02
2023-04-20T16:38:20.149Z,8.99
2023-04-20T16:42:06.565Z,8.96
2023-04-20T16:45:52.485Z,8.92
2023-04-20T16:49:37.930Z,8.94
2023-04-20T16:53:29.915Z,8.93
2023-04-20T16:57:22.913Z,8.94
2023-04-20T17:01:19.849Z,8.92
2023-04-20T17:05:20.620Z,8.93
2023-04-20T17:09:17.342Z,9.00
2023-04-20T17:13:18.172Z,8.99
2023-04-20T17:17:14.751Z,8.99
2023-04-20T17:21:14.791Z,9.05
2023-04-20T17:25:24.887Z,8.99
2023-04-20T17:29:18.217Z,9.03
2023-04-20T17:33:04.486Z,9.01
2023-04-20T17:36:50.884Z,9.00
2023-04-20T17:40:37.031Z,9.08
2023-04-20T17:44:23.343Z,9.10
2023-04-20T17:48:09.302Z,9.14
2023-04-20T17:52:01.604Z,9.12
2023-04-20T17:55:58.484Z,9.10
2023-04-20T17:59:59.287Z,9.02
2023-04-20T18:03:56.200Z,9.04
2023-04-20T18:07:57.214Z,9.04
2023-04-20T18:11:54.072Z,9.06
2023-04-20T18:15:54.822Z,9.10
2023-04-20T18:19:50.984Z,9.13
2023-04-20T18:23:51.250Z,9.09
2023-04-20T18:27:37.351Z,9.05
2023-04-20T18:31:23.874Z,8.99
2023-04-20T18:35:10.296Z,8.93
2023-04-20T18:38:56.292Z,8.90
2023-04-20T18:42:51.126Z,8.88
2023-04-20T18:46:51.536Z,8.88
2023-04-20T18:50:48.267Z,8.83
2023-04-20T18:54:48.754Z,8.80
2023-04-20T18:58:45.098Z,8.74
2023-04-20T19:02:45.899Z,8.76
2023-04-20T19:06:43.222Z,8.77
2023-04-20T19:10:43.788Z,8.77
2023-04-20T19:14:30.430Z,8.78
2023-04-20T19:18:17.096Z,8.81
2023-04-20T19:22:03.552Z,8.85
2023-04-20T19:25:49.825Z,8.90
2023-04-20T19:29:36.549Z,8.90
2023-04-20T19:33:22.976Z,8.84
2023-04-20T19:37:15.138Z,8.86
2023-04-20T19:41:14.468Z,8.87
2023-04-20T19:45:11.305Z,8.86
2023-04-20T19:49:11.890Z,8.85
2023-04-20T19:53:08.202Z,8.89
2023-04-20T19:57:08.815Z,8.89
2023-04-20T20:01:05.424Z,8.77
2023-04-20T20:05:04.478Z,8.71
2023-04-20T20:08:50.816Z,8.73
2023-04-20T20:12:37.084Z,8.74
2023-04-20T20:16:23.597Z,8.67
2023-04-20T20:20:09.512Z,8.67
2023-04-20T20:23:55.351Z,8.69
2023-04-20T20:27:41.564Z,8.72
2023-04-20T20:31:34.224Z,8.75
2023-04-20T20:35:35.175Z,8.67
2023-04-20T20:39:34.998Z,8.66
2023-04-20T20:43:37.195Z,8.66
2023-04-20T20:47:36.359Z,8.70
2023-04-20T20:51:39.159Z,8.75
2023-04-20T20:55:38.264Z,8.73
2023-04-20T20:59:41.278Z,8.73
2023-04-20T21:03:41.476Z,8.79
2023-04-20T21:07:45.252Z,8.76
2023-04-20T21:11:45.333Z,8.73
2023-04-20T21:16:05.465Z,8.62
2023-04-20T21:20:05.268Z,8.55
2023-04-20T21:24:08.502Z,8.54
2023-04-20T21:28:08.272Z,8.54
2023-04-20T21:32:07.692Z,8.51
2023-04-20T21:36:06.177Z,8.46
2023-04-20T21:40:09.474Z,8.47
2023-04-20T21:44:09.387Z,8.45
2023-04-20T21:48:11.890Z,8.44
2023-04-20T21:52:11.465Z,8.43
2023-04-20T21:56:14.289Z,8.49
2023-04-20T22:00:13.509Z,8.52
2023-04-20T22:04:20.195Z,8.58
2023-04-20T22:08:19.472Z,8.58
2023-04-20T22:12:32.260Z,8.64
2023-04-20T22:16:38.408Z,8.63
2023-04-20T22:20:40.832Z,8.65
2023-04-20T22:24:40.389Z,8.66
2023-04-20T22:28:44.085Z,8.68
2023-04-20T22:32:43.358Z,8.69
2023-04-20T22:36:45.444Z,8.67
2023-04-20T22:40:45.282Z,8.67
2023-04-20T22:44:47.262Z,8.62
2023-04-20T22:48:45.630Z,8.64
2023-04-20T22:52:48.433Z,8.61
2023-04-20T22:56:45.757Z,8.66
2023-04-20T23:00:46.810Z,8.70
2023-04-20T23:04:43.455Z,8.69
2023-04-20T23:08:43.515Z,8.68
2023-04-20T23:12:40.658Z,8.63
2023-04-20T23:16:41.032Z,8.62
2023-04-20T23:20:38.406Z,8.64
2023-04-20T23:24:39.272Z,8.62
2023-04-20T23:28:35.657Z,8.67
2023-04-20T23:32:36.273Z,8.63
2023-04-20T23:36:32.560Z,8.68
2023-04-20T23:40:32.577Z,8.71
2023-04-20T23:44:29.684Z,8.68
2023-04-20T23:48:30.338Z,8.62
2023-04-20T23:52:26.670Z,8.64
2023-04-20T23:56:27.218Z,8.67
